Погода Кандиевкана 2 недели

Пензенская область, Россия

27 мая-09 июня
  • 27мая
    Сегодня
    +8°
    +21°
    Ясно и безоблачно
    ВремяПогодаТемператураВлажностьДавлениеВетер, м/сВероятность осадков
    00:00Ясно и безоблачно+13°C73 %750 мм1.9 м/с2 %
    03:00Практически безоблачно+11°C64 %751 мм2.1 м/с2 %
    06:00Ясно и безоблачно+12°C53 %753 мм2.0 м/с2 %
    09:00Ясно и безоблачно+16°C38 %753 мм3.0 м/с2 %
    12:00Ясно и безоблачно+19°C30 %754 мм3.0 м/с2 %
    15:00Ясно и безоблачно+20°C28 %753 мм3.2 м/с2 %
    18:00Ясно и безоблачно+19°C30 %752 мм2.3 м/с2 %
    21:00Ясно и безоблачно+13°C46 %753 мм1.0 м/с2 %
  • 28мая
    Вторник
    +9°
    +23°
    Ясно и безоблачно
    ВремяПогодаТемператураВлажностьДавлениеВетер, м/сВероятность осадков
    00:00Ясно и безоблачно+10°C55 %753 мм1.0 м/с2 %
    03:00Ясно и безоблачно+9°C62 %753 мм1.0 м/с2 %
    06:00Ясно и безоблачно+12°C58 %753 мм1.4 м/с2 %
    09:00Ясно и безоблачно+17°C37 %753 мм2.1 м/с2 %
    12:00Ясно и безоблачно+20°C30 %753 мм1.6 м/с2 %
    15:00Ясно и безоблачно+22°C29 %751 мм2.0 м/с2 %
    18:00Ясно и безоблачно+22°C30 %750 мм1.7 м/с2 %
    21:00Ясно и безоблачно+16°C49 %750 мм0.7 м/с2 %
  • 29мая
    Среда
    +12°
    +25°
    Ясно и безоблачно
    ВремяПогодаТемператураВлажностьДавлениеВетер, м/сВероятность осадков
    00:00Ясно и безоблачно+14°C52 %749 мм0.5 м/с2 %
    03:00Ясно и безоблачно+10°C67 %749 мм0.8 м/с2 %
    06:00Ясно и безоблачно+14°C58 %748 мм1.0 м/с2 %
    09:00Ясно и безоблачно+20°C35 %749 мм1.9 м/с2 %
    12:00Ясно и безоблачно+23°C29 %748 мм1.6 м/с2 %
    15:00Ясно и безоблачно+24°C29 %747 мм2.0 м/с2 %
    18:00Ясно и безоблачно+25°C30 %746 мм1.6 м/с2 %
    21:00Ясно и безоблачно+18°C41 %746 мм0.8 м/с2 %
  • 30мая
    Четверг
    +13°
    +26°
    Ясно и безоблачно
    ВремяПогодаТемператураВлажностьДавлениеВетер, м/сВероятность осадков
    00:00Ясно и безоблачно+16°C40 %745 мм0.4 м/с2 %
    03:00Ясно и безоблачно+12°C65 %745 мм0.7 м/с2 %
    06:00Ясно и безоблачно+17°C61 %745 мм0.4 м/с2 %
    09:00Практически безоблачно+22°C33 %745 мм1.8 м/с2 %
    12:00Практически безоблачно+24°C26 %745 мм1.6 м/с2 %
    15:00Ясно и безоблачно+26°C25 %744 мм1.9 м/с2 %
    18:00Ясно и безоблачно+25°C27 %744 мм1.4 м/с2 %
    21:00Ясно и безоблачно+20°C46 %743 мм0.7 м/с3 %
  • 31мая
    Пятница
    +15°
    +28°
    Практически безоблачно
    ВремяПогодаТемператураВлажностьДавлениеВетер, м/сВероятность осадков
    00:00Ясно и безоблачно+16°C46 %743 мм1.1 м/с5 %
    03:00Небольшая облачность+15°C55 %743 мм1.4 м/с5 %
    06:00Небольшая облачность+18°C51 %744 мм1.4 м/с2 %
    09:00Облачно с прояснениями+23°C38 %744 мм1.8 м/с6 %
    12:00Ясно и безоблачно+27°C30 %744 мм2.2 м/с5 %
    15:00Практически безоблачно+28°C29 %744 мм2.9 м/с11 %
    18:00Облачно с прояснениями+27°C42 %744 мм2.3 м/с14 %
    21:00Облачно с прояснениями+21°C63 %744 мм1.2 м/с4 %
Мы используем cookies
Соглашаюсь